createdAt,value
2023-04-12T00:00:12.090Z,92.92
2023-04-12T00:02:39.957Z,93.20
2023-04-12T00:05:09.461Z,93.18
2023-04-12T00:07:36.089Z,93.31
2023-04-12T00:10:03.384Z,93.48
2023-04-12T00:12:29.798Z,93.70
2023-04-12T00:14:56.259Z,93.92
2023-04-12T00:17:22.711Z,94.12
2023-04-12T00:19:50.349Z,94.14
2023-04-12T00:22:16.876Z,94.37
2023-04-12T00:24:43.647Z,94.72
2023-04-12T00:27:10.398Z,94.56
2023-04-12T00:29:37.027Z,94.59
2023-04-12T00:32:05.454Z,94.34
2023-04-12T00:34:31.981Z,94.41
2023-04-12T00:36:58.454Z,94.48
2023-04-12T00:39:24.926Z,94.46
2023-04-12T00:41:51.349Z,94.45
2023-04-12T00:44:20.473Z,94.61
2023-04-12T00:46:47.292Z,94.39
2023-04-12T00:49:15.449Z,94.59
2023-04-12T00:51:42.380Z,94.29
2023-04-12T00:54:08.937Z,94.35
2023-04-12T00:56:36.874Z,94.03
2023-04-12T00:59:03.500Z,93.99
2023-04-12T01:01:31.933Z,93.76
2023-04-12T01:04:01.476Z,93.51
2023-04-12T01:06:55.732Z,94.47
2023-04-12T01:09:35.927Z,93.97
2023-04-12T01:12:16.619Z,93.71
2023-04-12T01:15:02.541Z,93.62
2023-04-12T01:17:37.863Z,93.07
2023-04-12T01:20:14.504Z,93.39
2023-04-12T01:22:54.712Z,92.86
2023-04-12T01:25:52.552Z,93.54
2023-04-12T01:28:24.342Z,92.95
2023-04-12T01:30:52.166Z,92.61
2023-04-12T01:33:18.985Z,92.88
2023-04-12T01:35:48.223Z,92.97
2023-04-12T01:38:15.035Z,93.22
2023-04-12T01:40:42.631Z,92.95
2023-04-12T01:43:14.040Z,92.84
2023-04-12T01:45:40.809Z,92.73
2023-04-12T01:48:12.492Z,92.78
2023-04-12T01:50:56.461Z,93.14
2023-04-12T01:53:43.160Z,92.67
2023-04-12T01:56:10.523Z,92.26
2023-04-12T01:58:39.670Z,92.44
2023-04-12T02:01:08.461Z,92.50
2023-04-12T02:03:37.445Z,92.73
2023-04-12T02:06:05.772Z,92.45
2023-04-12T02:08:32.516Z,92.17
2023-04-12T02:10:59.014Z,92.08
2023-04-12T02:13:26.671Z,92.05
2023-04-12T02:15:54.551Z,91.93
2023-04-12T02:18:21.062Z,92.01
2023-04-12T02:20:47.572Z,92.12
2023-04-12T02:23:13.996Z,92.24
2023-04-12T02:25:41.317Z,92.21
2023-04-12T02:28:07.893Z,92.13
2023-04-12T02:30:34.362Z,92.36
2023-04-12T02:33:02.333Z,92.37
2023-04-12T02:35:32.009Z,92.57
2023-04-12T02:37:58.602Z,92.09
2023-04-12T02:40:25.102Z,92.15
2023-04-12T02:42:51.509Z,92.08
2023-04-12T02:45:18.070Z,92.19
2023-04-12T02:47:44.534Z,92.80
2023-04-12T02:50:11.613Z,92.93
2023-04-12T02:52:38.123Z,93.05
2023-04-12T02:55:04.978Z,93.60
2023-04-12T02:57:31.628Z,93.72
2023-04-12T02:59:58.076Z,93.66
2023-04-12T03:02:24.773Z,93.89
2023-04-12T03:04:51.357Z,93.97
2023-04-12T03:07:19.694Z,93.84
2023-04-12T03:09:47.741Z,93.61
2023-04-12T03:12:16.025Z,93.53
2023-04-12T03:14:42.986Z,93.49
2023-04-12T03:17:09.534Z,93.37
2023-04-12T03:19:36.711Z,92.99
2023-04-12T03:22:04.546Z,93.10
2023-04-12T03:24:34.238Z,93.14
2023-04-12T03:27:06.837Z,93.18
2023-04-12T03:29:33.377Z,92.90
2023-04-12T03:31:59.865Z,92.91
2023-04-12T03:34:33.037Z,92.43
2023-04-12T03:37:01.171Z,92.02
2023-04-12T03:39:28.464Z,91.82
2023-04-12T03:41:55.507Z,91.36
2023-04-12T03:44:22.550Z,90.85
2023-04-12T03:46:49.446Z,90.68
2023-04-12T03:49:16.645Z,90.43
2023-04-12T03:51:43.624Z,90.20
2023-04-12T03:54:11.092Z,89.82
2023-04-12T03:56:38.680Z,89.55
2023-04-12T03:59:07.705Z,89.29
2023-04-12T04:01:35.308Z,89.18
2023-04-12T04:04:03.502Z,88.80
2023-04-12T04:06:30.454Z,88.62
2023-04-12T04:08:57.784Z,88.28
2023-04-12T04:11:25.565Z,87.92
2023-04-12T04:13:52.116Z,87.63
2023-04-12T04:16:19.163Z,87.09
2023-04-12T04:18:46.137Z,86.40
2023-04-12T04:21:14.356Z,86.22
2023-04-12T04:23:44.788Z,85.97
2023-04-12T04:26:11.863Z,85.77
2023-04-12T04:28:39.458Z,85.62
2023-04-12T04:31:06.382Z,85.62
2023-04-12T04:33:33.721Z,85.33
2023-04-12T04:36:01.006Z,85.13
2023-04-12T04:38:28.374Z,84.86
2023-04-12T04:40:55.264Z,84.42
2023-04-12T04:43:22.043Z,84.26
2023-04-12T04:45:51.659Z,84.05
2023-04-12T04:48:21.546Z,83.87
2023-04-12T04:50:48.566Z,83.52
2023-04-12T04:53:18.747Z,83.26
2023-04-12T04:55:45.250Z,82.70
2023-04-12T04:58:11.848Z,82.75
2023-04-12T05:00:38.747Z,82.53
2023-04-12T05:03:05.582Z,82.13
2023-04-12T05:05:32.654Z,82.05
2023-04-12T05:07:59.146Z,81.83
2023-04-12T05:10:25.775Z,81.81
2023-04-12T05:12:52.330Z,81.54
2023-04-12T05:15:19.034Z,81.57
2023-04-12T05:17:46.065Z,81.29
2023-04-12T05:20:12.533Z,81.23
2023-04-12T05:22:39.327Z,80.85
2023-04-12T05:25:06.455Z,80.53
2023-04-12T05:27:32.925Z,80.37
2023-04-12T05:29:59.771Z,80.20
2023-04-12T05:32:26.534Z,79.78
2023-04-12T05:34:53.045Z,79.10
2023-04-12T05:37:19.803Z,78.50
2023-04-12T05:39:46.260Z,78.47
2023-04-12T05:42:12.774Z,78.05
2023-04-12T05:44:40.009Z,77.27
2023-04-12T05:47:16.198Z,76.99
2023-04-12T05:49:42.642Z,76.29
2023-04-12T05:52:09.154Z,76.33
2023-04-12T05:54:35.776Z,76.21
2023-04-12T05:57:02.790Z,75.78
2023-04-12T05:59:29.759Z,75.01
2023-04-12T06:01:56.416Z,75.23
2023-04-12T06:04:24.200Z,73.61
2023-04-12T06:06:56.140Z,73.96
2023-04-12T06:09:22.976Z,73.17
2023-04-12T06:11:49.469Z,72.12
2023-04-12T06:14:16.334Z,71.71
2023-04-12T06:16:42.880Z,72.26
2023-04-12T06:19:11.226Z,72.15
2023-04-12T06:21:37.790Z,71.56
2023-04-12T06:24:04.448Z,70.85
2023-04-12T06:26:38.905Z,71.07
2023-04-12T06:29:06.472Z,69.83
2023-04-12T06:31:33.028Z,69.26
2023-04-12T06:34:01.035Z,69.40
2023-04-12T06:36:27.582Z,69.45
2023-04-12T06:38:55.363Z,67.77
2023-04-12T06:41:22.273Z,67.82
2023-04-12T06:43:48.839Z,67.80
2023-04-12T06:46:15.972Z,67.30
2023-04-12T06:48:42.512Z,67.18
2023-04-12T06:51:10.216Z,65.88
2023-04-12T06:53:38.327Z,66.47
2023-04-12T06:56:05.627Z,64.96
2023-04-12T06:58:32.133Z,64.17
2023-04-12T07:01:09.966Z,63.83
2023-04-12T07:03:37.123Z,62.90
2023-04-12T07:06:13.781Z,62.83
2023-04-12T07:08:50.717Z,60.40
2023-04-12T07:11:21.322Z,59.33
2023-04-12T07:13:49.196Z,58.20
2023-04-12T07:16:16.088Z,57.18
2023-04-12T07:18:42.576Z,58.40
2023-04-12T07:21:09.218Z,56.98
2023-04-12T07:23:35.747Z,57.74
2023-04-12T07:26:02.687Z,57.56
2023-04-12T07:28:29.164Z,57.60
2023-04-12T07:30:55.839Z,57.56
2023-04-12T07:33:22.450Z,57.72
2023-04-12T07:35:48.999Z,57.53
2023-04-12T07:38:16.801Z,56.22
2023-04-12T07:40:43.651Z,58.09
2023-04-12T07:43:10.364Z,56.33
2023-04-12T07:45:37.559Z,56.86
2023-04-12T07:48:04.376Z,55.24
2023-04-12T07:50:31.282Z,56.37
2023-04-12T07:53:17.659Z,57.12
2023-04-12T07:55:44.277Z,55.91
2023-04-12T07:58:10.792Z,56.21
2023-04-12T08:00:37.240Z,56.32
2023-04-12T08:03:03.849Z,56.63
2023-04-12T08:05:30.694Z,57.05
2023-04-12T08:07:57.093Z,56.40
2023-04-12T08:10:23.546Z,56.50
2023-04-12T08:12:50.119Z,56.02
2023-04-12T08:15:16.636Z,55.88
2023-04-12T08:17:43.983Z,55.64
2023-04-12T08:20:11.224Z,54.67
2023-04-12T08:22:37.790Z,54.54
2023-04-12T08:25:04.588Z,55.37
2023-04-12T08:27:31.460Z,54.99
2023-04-12T08:29:57.929Z,55.26
2023-04-12T08:32:24.602Z,54.01
2023-04-12T08:34:51.420Z,54.94
2023-04-12T08:37:18.066Z,54.97
2023-04-12T08:39:44.555Z,54.06
2023-04-12T08:42:11.228Z,54.37
2023-04-12T08:44:39.311Z,55.28
2023-04-12T08:47:07.676Z,54.97
2023-04-12T08:49:35.235Z,54.68
2023-04-12T08:52:07.712Z,54.89
2023-04-12T08:54:35.657Z,54.32
2023-04-12T08:57:06.501Z,54.64
2023-04-12T08:59:37.670Z,54.67
2023-04-12T09:02:04.351Z,53.61
2023-04-12T09:04:31.176Z,54.72
2023-04-12T09:06:57.678Z,53.65
2023-04-12T09:09:46.961Z,53.43
2023-04-12T09:12:15.228Z,51.86
2023-04-12T09:14:45.283Z,52.31
2023-04-12T09:17:22.524Z,52.92
2023-04-12T09:19:49.112Z,53.74
2023-04-12T09:22:16.085Z,51.98
2023-04-12T09:24:50.640Z,51.61
2023-04-12T09:27:21.006Z,51.94
2023-04-12T09:29:51.464Z,52.18
2023-04-12T09:32:28.688Z,52.60
2023-04-12T09:35:01.252Z,52.63
2023-04-12T09:37:28.107Z,51.78
2023-04-12T09:40:03.625Z,51.08
2023-04-12T09:42:34.465Z,51.08
2023-04-12T09:45:20.201Z,49.94
2023-04-12T09:47:46.994Z,50.43
2023-04-12T09:50:21.995Z,51.67
2023-04-12T09:52:49.538Z,50.49
2023-04-12T09:55:17.536Z,51.19
2023-04-12T09:57:45.250Z,51.54
2023-04-12T10:00:20.234Z,50.51
2023-04-12T10:02:52.746Z,51.28
2023-04-12T10:05:22.249Z,50.83
2023-04-12T10:07:50.128Z,50.45
2023-04-12T10:10:18.487Z,51.13
2023-04-12T10:12:46.614Z,50.46
2023-04-12T10:15:13.683Z,51.60
2023-04-12T10:17:45.837Z,51.26
2023-04-12T10:20:17.005Z,51.52
2023-04-12T10:22:52.268Z,52.85
2023-04-12T10:25:21.735Z,52.15
2023-04-12T10:27:48.875Z,52.07
2023-04-12T10:30:22.472Z,51.29
2023-04-12T10:33:10.092Z,51.41
2023-04-12T10:35:53.370Z,52.04
2023-04-12T10:38:20.627Z,52.41
2023-04-12T10:41:19.534Z,53.29
2023-04-12T10:43:49.786Z,54.50
2023-04-12T10:46:35.191Z,53.91
2023-04-12T10:49:09.459Z,55.07
2023-04-12T10:51:36.285Z,57.33
2023-04-12T10:54:08.660Z,58.11
2023-04-12T10:56:39.778Z,59.81
2023-04-12T10:59:07.881Z,61.24
2023-04-12T11:01:38.397Z,61.32
2023-04-12T11:04:14.540Z,62.42
2023-04-12T11:07:04.589Z,63.92
2023-04-12T11:09:33.937Z,64.60
2023-04-12T11:12:08.830Z,65.38
2023-04-12T11:14:37.996Z,66.51
2023-04-12T11:17:13.892Z,67.31
2023-04-12T11:19:43.687Z,68.71
2023-04-12T11:22:12.123Z,69.95
2023-04-12T11:24:49.061Z,70.70
2023-04-12T11:27:16.385Z,72.36
2023-04-12T11:29:43.650Z,73.28
2023-04-12T11:32:14.654Z,74.14
2023-04-12T11:34:43.264Z,75.43
2023-04-12T11:37:10.493Z,75.67
2023-04-12T11:39:41.304Z,75.80
2023-04-12T11:42:13.349Z,77.21
2023-04-12T11:44:55.167Z,77.51
2023-04-12T11:47:24.811Z,78.30
2023-04-12T11:49:57.371Z,79.46
2023-04-12T11:52:32.394Z,80.34
2023-04-12T11:55:06.481Z,80.61
2023-04-12T11:57:34.285Z,81.19
2023-04-12T12:00:01.345Z,81.15
2023-04-12T12:02:32.973Z,81.87
2023-04-12T12:05:03.684Z,82.61
2023-04-12T12:07:31.637Z,82.83
2023-04-12T12:09:58.588Z,82.99
2023-04-12T12:12:25.560Z,83.36
2023-04-12T12:14:52.150Z,83.86
2023-04-12T12:17:19.454Z,84.53
2023-04-12T12:19:46.604Z,84.89
2023-04-12T12:22:15.676Z,85.35
2023-04-12T12:24:52.278Z,85.85
2023-04-12T12:27:23.920Z,85.42
2023-04-12T12:29:55.127Z,83.22
2023-04-12T12:32:23.747Z,83.39
2023-04-12T12:34:58.170Z,83.37
2023-04-12T12:37:26.165Z,83.42
2023-04-12T12:40:16.685Z,84.54
2023-04-12T12:42:47.560Z,83.91
2023-04-12T12:45:17.555Z,83.05
2023-04-12T12:48:00.508Z,84.02
2023-04-12T12:50:28.831Z,83.78
2023-04-12T12:52:57.013Z,82.97
2023-04-12T12:55:24.742Z,83.93
2023-04-12T12:58:07.464Z,84.16
2023-04-12T13:00:35.513Z,84.04
2023-04-12T13:03:02.757Z,84.56
2023-04-12T13:05:30.057Z,84.51
2023-04-12T13:07:56.947Z,85.53
2023-04-12T13:10:23.807Z,85.93
2023-04-12T13:12:50.394Z,85.84
2023-04-12T13:15:23.199Z,86.54
2023-04-12T13:17:54.768Z,86.99
2023-04-12T13:20:22.653Z,87.24
2023-04-12T13:22:51.421Z,85.97
2023-04-12T13:25:19.805Z,85.64
2023-04-12T13:27:48.770Z,86.03
2023-04-12T13:30:15.607Z,85.00
2023-04-12T13:32:42.057Z,84.27
2023-04-12T13:35:09.037Z,84.46
2023-04-12T13:37:35.514Z,83.52
2023-04-12T13:40:01.982Z,83.05
2023-04-12T13:42:28.546Z,83.60
2023-04-12T13:44:55.319Z,82.84
2023-04-12T13:47:22.498Z,82.36
2023-04-12T13:49:49.366Z,83.52
2023-04-12T13:52:16.096Z,84.69
2023-04-12T13:54:43.261Z,83.74
2023-04-12T13:57:10.198Z,84.26
2023-04-12T13:59:36.780Z,84.55
2023-04-12T14:02:03.403Z,84.37
2023-04-12T14:04:31.511Z,84.37
2023-04-12T14:06:58.956Z,85.25
2023-04-12T14:09:30.471Z,86.29
2023-04-12T14:11:58.587Z,86.25
2023-04-12T14:14:27.136Z,86.30
2023-04-12T14:16:57.644Z,85.34
2023-04-12T14:19:24.761Z,85.83
2023-04-12T14:21:51.760Z,85.61
2023-04-12T14:24:19.688Z,85.37
2023-04-12T14:26:46.618Z,85.92
2023-04-12T14:29:13.571Z,86.08
2023-04-12T14:31:40.572Z,86.45
2023-04-12T14:34:08.699Z,85.78
2023-04-12T14:36:35.297Z,86.09
2023-04-12T14:39:03.791Z,86.13
2023-04-12T14:41:31.488Z,87.01
2023-04-12T14:44:01.623Z,87.63
2023-04-12T14:46:28.584Z,87.57
2023-04-12T14:48:57.094Z,87.81
2023-04-12T14:51:24.389Z,87.77
2023-04-12T14:53:51.021Z,87.33
2023-04-12T14:56:27.909Z,87.99
2023-04-12T14:58:56.744Z,87.89
2023-04-12T15:01:24.798Z,88.43
2023-04-12T15:03:52.354Z,88.68
2023-04-12T15:06:20.831Z,87.89
2023-04-12T15:08:49.558Z,87.49
2023-04-12T15:11:18.932Z,88.19
2023-04-12T15:13:45.428Z,87.98
2023-04-12T15:16:15.215Z,88.36
2023-04-12T15:18:41.883Z,88.54
2023-04-12T15:21:10.398Z,88.34
2023-04-12T15:23:38.032Z,88.47
2023-04-12T15:26:06.647Z,88.53
2023-04-12T15:28:33.556Z,88.96
2023-04-12T15:31:01.073Z,88.85
2023-04-12T15:33:28.536Z,88.91
2023-04-12T15:35:58.101Z,88.81
2023-04-12T15:38:24.846Z,88.61
2023-04-12T15:40:59.200Z,89.08
2023-04-12T15:43:26.319Z,88.92
2023-04-12T15:45:54.633Z,88.81
2023-04-12T15:48:22.990Z,88.88
2023-04-12T15:50:50.798Z,89.18
2023-04-12T15:53:20.392Z,89.75
2023-04-12T15:55:47.822Z,89.32
2023-04-12T15:58:14.698Z,89.00
2023-04-12T16:00:41.219Z,88.94
2023-04-12T16:03:07.887Z,89.13
2023-04-12T16:05:34.917Z,89.06
2023-04-12T16:08:01.492Z,88.58
2023-04-12T16:10:28.110Z,88.17
2023-04-12T16:12:56.338Z,88.50
2023-04-12T16:15:23.070Z,88.27
2023-04-12T16:17:54.318Z,87.79
2023-04-12T16:20:21.814Z,87.64
2023-04-12T16:22:54.169Z,88.11
2023-04-12T16:25:22.486Z,88.31
2023-04-12T16:27:49.005Z,88.60
2023-04-12T16:30:16.019Z,88.19
2023-04-12T16:32:46.697Z,88.15
2023-04-12T16:35:16.728Z,87.88
2023-04-12T16:37:44.181Z,87.97
2023-04-12T16:40:12.782Z,87.99
2023-04-12T16:42:43.773Z,88.01
2023-04-12T16:45:12.165Z,88.46
2023-04-12T16:47:39.656Z,88.59
2023-04-12T16:50:12.750Z,88.53
2023-04-12T16:52:39.961Z,88.47
2023-04-12T16:55:07.113Z,88.65
2023-04-12T16:57:33.546Z,88.56
2023-04-12T17:00:00.394Z,88.66
2023-04-12T17:02:27.249Z,88.52
2023-04-12T17:04:53.799Z,88.73
2023-04-12T17:07:20.316Z,88.80
2023-04-12T17:09:46.804Z,88.88
2023-04-12T17:12:13.243Z,89.18
2023-04-12T17:14:39.839Z,88.97
2023-04-12T17:17:06.759Z,88.60
2023-04-12T17:19:33.461Z,88.56
2023-04-12T17:22:00.005Z,88.77
2023-04-12T17:24:26.800Z,88.77
2023-04-12T17:26:53.801Z,88.93
2023-04-12T17:29:20.844Z,88.87
2023-04-12T17:31:50.633Z,88.91
2023-04-12T17:34:19.603Z,88.59
2023-04-12T17:36:46.304Z,88.70
2023-04-12T17:39:12.775Z,88.69
2023-04-12T17:41:39.514Z,88.72
2023-04-12T17:44:06.686Z,88.86
2023-04-12T17:46:34.695Z,88.89
2023-04-12T17:49:04.030Z,88.87
2023-04-12T17:51:32.140Z,89.00
2023-04-12T17:54:00.344Z,88.90
2023-04-12T17:56:26.945Z,88.98
2023-04-12T17:58:53.532Z,89.05
2023-04-12T18:01:20.163Z,88.98
2023-04-12T18:03:47.620Z,89.18
2023-04-12T18:06:15.059Z,89.14
2023-04-12T18:08:41.488Z,89.23
2023-04-12T18:11:07.990Z,89.36
2023-04-12T18:13:34.657Z,89.38
2023-04-12T18:16:01.594Z,89.33
2023-04-12T18:18:28.247Z,89.67
2023-04-12T18:20:54.818Z,89.44
2023-04-12T18:23:21.637Z,89.49
2023-04-12T18:25:48.219Z,89.57
2023-04-12T18:28:15.244Z,89.67
2023-04-12T18:30:41.666Z,89.68
2023-04-12T18:33:08.338Z,89.95
2023-04-12T18:35:35.276Z,90.15
2023-04-12T18:38:01.758Z,90.13
2023-04-12T18:40:28.673Z,90.54
2023-04-12T18:42:55.212Z,91.26
2023-04-12T18:45:22.733Z,91.39
2023-04-12T18:47:51.267Z,91.29
2023-04-12T18:50:19.317Z,91.10
2023-04-12T18:52:45.937Z,91.25
2023-04-12T18:55:12.387Z,91.55
2023-04-12T18:57:38.822Z,91.50
2023-04-12T19:00:13.537Z,91.81
2023-04-12T19:02:40.928Z,92.42
2023-04-12T19:05:10.323Z,92.77
2023-04-12T19:07:37.347Z,93.19
2023-04-12T19:10:04.622Z,93.49
2023-04-12T19:12:31.744Z,93.46
2023-04-12T19:14:58.302Z,93.27
2023-04-12T19:17:27.765Z,93.07
2023-04-12T19:19:54.541Z,92.62
2023-04-12T19:22:21.489Z,92.51
2023-04-12T19:24:49.861Z,92.30
2023-04-12T19:27:16.791Z,92.35
2023-04-12T19:29:44.032Z,92.14
2023-04-12T19:32:13.570Z,90.59
2023-04-12T19:34:41.120Z,88.58
2023-04-12T19:37:08.303Z,86.73
2023-04-12T19:39:34.854Z,85.44
2023-04-12T19:42:02.215Z,84.71
2023-04-12T19:44:29.231Z,84.63
2023-04-12T19:46:55.747Z,84.11
2023-04-12T19:49:23.714Z,84.47
2023-04-12T19:51:51.077Z,84.88
2023-04-12T19:54:18.864Z,85.08
2023-04-12T19:56:49.665Z,85.21
2023-04-12T19:59:17.831Z,85.24
2023-04-12T20:01:50.548Z,85.20
2023-04-12T20:04:21.627Z,85.89
2023-04-12T20:06:50.065Z,85.63
2023-04-12T20:09:17.352Z,85.15
2023-04-12T20:11:43.974Z,85.47
2023-04-12T20:14:10.666Z,85.26
2023-04-12T20:16:38.298Z,85.66
2023-04-12T20:19:04.982Z,85.56
2023-04-12T20:21:34.046Z,85.60
2023-04-12T20:24:02.339Z,85.66
2023-04-12T20:26:31.649Z,85.45
2023-04-12T20:28:59.831Z,85.52
2023-04-12T20:31:26.980Z,85.52
2023-04-12T20:33:57.265Z,85.86
2023-04-12T20:36:26.125Z,86.09
2023-04-12T20:38:53.737Z,86.04
2023-04-12T20:41:20.300Z,86.52
2023-04-12T20:43:48.104Z,86.50
2023-04-12T20:46:16.973Z,86.86
2023-04-12T20:48:44.481Z,87.11
2023-04-12T20:51:18.155Z,87.50
2023-04-12T20:53:47.237Z,87.43
2023-04-12T20:56:14.191Z,87.53
2023-04-12T20:58:41.101Z,87.88
2023-04-12T21:01:14.904Z,87.94
2023-04-12T21:03:43.234Z,87.23
2023-04-12T21:06:11.010Z,87.05
2023-04-12T21:08:38.896Z,87.31
2023-04-12T21:11:06.253Z,87.28
2023-04-12T21:13:34.625Z,87.27
2023-04-12T21:16:05.369Z,87.56
2023-04-12T21:18:34.383Z,87.53
2023-04-12T21:21:01.743Z,87.43
2023-04-12T21:23:28.250Z,87.88
2023-04-12T21:25:54.825Z,87.84
2023-04-12T21:28:22.725Z,88.16
2023-04-12T21:30:54.777Z,88.58
2023-04-12T21:33:24.898Z,88.53
2023-04-12T21:35:55.562Z,88.48
2023-04-12T21:38:23.269Z,88.63
2023-04-12T21:40:50.346Z,88.55
2023-04-12T21:43:17.336Z,88.66
2023-04-12T21:45:45.393Z,88.67
2023-04-12T21:48:14.347Z,88.52
2023-04-12T21:50:41.834Z,88.90
2023-04-12T21:53:08.368Z,88.89
2023-04-12T21:55:34.868Z,88.87
2023-04-12T21:58:01.414Z,89.09
2023-04-12T22:00:28.300Z,89.22
2023-04-12T22:02:54.839Z,89.34
2023-04-12T22:05:21.621Z,89.49
2023-04-12T22:07:48.204Z,89.70
2023-04-12T22:10:14.819Z,89.48
2023-04-12T22:12:41.295Z,89.50
2023-04-12T22:15:09.076Z,89.83
2023-04-12T22:17:35.864Z,89.90
2023-04-12T22:20:03.809Z,89.99
2023-04-12T22:22:31.790Z,89.91
2023-04-12T22:24:58.175Z,90.25
2023-04-12T22:27:26.433Z,89.90
2023-04-12T22:29:53.515Z,89.96
2023-04-12T22:32:20.023Z,89.97
2023-04-12T22:34:46.984Z,90.00
2023-04-12T22:37:16.537Z,90.36
2023-04-12T22:39:42.970Z,89.86
2023-04-12T22:42:09.680Z,90.08
2023-04-12T22:44:38.386Z,90.35
2023-04-12T22:47:07.150Z,90.69
2023-04-12T22:49:44.481Z,92.09
2023-04-12T22:52:10.928Z,91.52
2023-04-12T22:54:37.415Z,91.35
2023-04-12T22:57:04.370Z,91.64
2023-04-12T22:59:30.856Z,91.42
2023-04-12T23:01:57.386Z,91.41
2023-04-12T23:04:23.952Z,91.13
2023-04-12T23:06:55.067Z,90.96
2023-04-12T23:09:21.590Z,90.76
2023-04-12T23:11:48.495Z,90.40
2023-04-12T23:14:17.662Z,90.31
2023-04-12T23:16:46.197Z,89.96
2023-04-12T23:19:14.569Z,89.84
2023-04-12T23:21:41.996Z,89.78
2023-04-12T23:24:11.402Z,89.86
2023-04-12T23:26:37.985Z,89.83
2023-04-12T23:29:04.454Z,90.04
2023-04-12T23:31:33.522Z,89.92
2023-04-12T23:34:03.188Z,90.27
2023-04-12T23:36:30.306Z,90.52
2023-04-12T23:38:59.969Z,90.52
2023-04-12T23:41:31.614Z,90.99
2023-04-12T23:43:58.828Z,91.58
2023-04-12T23:46:26.260Z,92.24
2023-04-12T23:48:52.757Z,92.89
2023-04-12T23:51:19.294Z,93.42
2023-04-12T23:53:46.120Z,93.70
2023-04-12T23:56:12.885Z,93.55
2023-04-12T23:58:39.315Z,94.08
